sensor_id;sensor_type;location;lat;lon;timestamp;temperature;humidity
30063;DHT22;16889;67.864;24.990;2023-09-08T00:01:23;6.50;99.90
30063;DHT22;16889;67.864;24.990;2023-09-08T00:06:09;6.40;99.90
30063;DHT22;16889;67.864;24.990;2023-09-08T00:10:55;6.20;99.90
30063;DHT22;16889;67.864;24.990;2023-09-08T00:15:41;6.10;99.90
30063;DHT22;16889;67.864;24.990;2023-09-08T00:20:27;6.10;99.90
30063;DHT22;16889;67.864;24.990;2023-09-08T00:25:13;6.10;99.90
30063;DHT22;16889;67.864;24.990;2023-09-08T00:29:59;5.90;99.90
30063;DHT22;16889;67.864;24.990;2023-09-08T00:34:47;5.80;99.90
30063;DHT22;16889;67.864;24.990;2023-09-08T00:39:35;5.70;99.90
30063;DHT22;16889;67.864;24.990;2023-09-08T00:44:21;5.80;99.90
30063;DHT22;16889;67.864;24.990;2023-09-08T00:49:07;5.80;99.90
30063;DHT22;16889;67.864;24.990;2023-09-08T00:53:54;5.80;99.90
30063;DHT22;16889;67.864;24.990;2023-09-08T00:58:40;5.80;99.90
30063;DHT22;16889;67.864;24.990;2023-09-08T01:03:26;5.70;99.90
30063;DHT22;16889;67.864;24.990;2023-09-08T01:08:13;5.90;99.90
30063;DHT22;16889;67.864;24.990;2023-09-08T01:12:59;5.90;99.90
30063;DHT22;16889;67.864;24.990;2023-09-08T01:17:45;5.90;99.90
30063;DHT22;16889;67.864;24.990;2023-09-08T01:27:58;6.10;99.90
30063;DHT22;16889;67.864;24.990;2023-09-08T01:32:46;6.40;99.90
30063;DHT22;16889;67.864;24.990;2023-09-08T01:37:32;6.50;99.90
30063;DHT22;16889;67.864;24.990;2023-09-08T01:42:18;6.60;99.90
30063;DHT22;16889;67.864;24.990;2023-09-08T01:47:04;6.70;99.90
30063;DHT22;16889;67.864;24.990;2023-09-08T01:51:50;6.70;99.90
30063;DHT22;16889;67.864;24.990;2023-09-08T01:56:36;6.80;99.90
30063;DHT22;16889;67.864;24.990;2023-09-08T02:01:22;6.90;99.90
30063;DHT22;16889;67.864;24.990;2023-09-08T02:06:08;6.80;99.90
30063;DHT22;16889;67.864;24.990;2023-09-08T02:10:54;6.80;99.90
30063;DHT22;16889;67.864;24.990;2023-09-08T02:15:40;6.70;99.90
30063;DHT22;16889;67.864;24.990;2023-09-08T02:20:26;6.90;99.90
30063;DHT22;16889;67.864;24.990;2023-09-08T02:25:12;6.80;99.90
30063;DHT22;16889;67.864;24.990;2023-09-08T02:29:59;6.60;99.90
30063;DHT22;16889;67.864;24.990;2023-09-08T02:34:45;6.70;99.90
30063;DHT22;16889;67.864;24.990;2023-09-08T02:39:32;6.80;99.90
30063;DHT22;16889;67.864;24.990;2023-09-08T02:44:18;6.80;99.90
30063;DHT22;16889;67.864;24.990;2023-09-08T02:49:05;6.90;99.90
30063;DHT22;16889;67.864;24.990;2023-09-08T02:53:51;6.70;99.90
30063;DHT22;16889;67.864;24.990;2023-09-08T02:58:37;6.70;99.90
30063;DHT22;16889;67.864;24.990;2023-09-08T03:03:23;6.70;99.90
30063;DHT22;16889;67.864;24.990;2023-09-08T03:08:09;6.70;99.90
30063;DHT22;16889;67.864;24.990;2023-09-08T03:12:55;6.80;99.90
30063;DHT22;16889;67.864;24.990;2023-09-08T03:17:41;6.70;99.90
30063;DHT22;16889;67.864;24.990;2023-09-08T04:02:20;6.40;99.90
30063;DHT22;16889;67.864;24.990;2023-09-08T04:07:06;6.50;99.90
30063;DHT22;16889;67.864;24.990;2023-09-08T04:11:52;6.40;99.90
30063;DHT22;16889;67.864;24.990;2023-09-08T04:16:38;6.40;99.90
30063;DHT22;16889;67.864;24.990;2023-09-08T04:21:24;6.50;99.90
30063;DHT22;16889;67.864;24.990;2023-09-08T04:26:10;6.80;99.90
30063;DHT22;16889;67.864;24.990;2023-09-08T04:30:56;7.10;99.90
30063;DHT22;16889;67.864;24.990;2023-09-08T04:35:43;7.30;99.90
30063;DHT22;16889;67.864;24.990;2023-09-08T04:40:29;7.50;99.90
30063;DHT22;16889;67.864;24.990;2023-09-08T04:45:15;7.70;99.90
30063;DHT22;16889;67.864;24.990;2023-09-08T04:50:00;7.90;99.90
30063;DHT22;16889;67.864;24.990;2023-09-08T04:54:46;8.10;99.90
30063;DHT22;16889;67.864;24.990;2023-09-08T04:59:32;8.30;99.90
30063;DHT22;16889;67.864;24.990;2023-09-08T05:04:19;8.50;99.90
30063;DHT22;16889;67.864;24.990;2023-09-08T05:09:05;8.70;99.90
30063;DHT22;16889;67.864;24.990;2023-09-08T05:13:51;8.80;99.90
30063;DHT22;16889;67.864;24.990;2023-09-08T05:18:38;8.80;99.90
30063;DHT22;16889;67.864;24.990;2023-09-08T05:23:24;9.10;99.90
30063;DHT22;16889;67.864;24.990;2023-09-08T05:28:10;9.30;99.90
30063;DHT22;16889;67.864;24.990;2023-09-08T05:32:56;9.40;99.90
30063;DHT22;16889;67.864;24.990;2023-09-08T05:37:42;9.60;99.90
30063;DHT22;16889;67.864;24.990;2023-09-08T05:42:28;9.80;99.90
30063;DHT22;16889;67.864;24.990;2023-09-08T05:47:14;10.10;99.90
30063;DHT22;16889;67.864;24.990;2023-09-08T05:52:00;10.30;99.90
30063;DHT22;16889;67.864;24.990;2023-09-08T05:56:46;10.50;99.90
30063;DHT22;16889;67.864;24.990;2023-09-08T06:01:32;10.60;99.90
30063;DHT22;16889;67.864;24.990;2023-09-08T06:06:18;10.50;99.90
30063;DHT22;16889;67.864;24.990;2023-09-08T06:11:04;10.60;99.90
30063;DHT22;16889;67.864;24.990;2023-09-08T06:15:50;10.60;99.90
30063;DHT22;16889;67.864;24.990;2023-09-08T06:20:36;10.60;99.90
30063;DHT22;16889;67.864;24.990;2023-09-08T06:25:22;10.70;99.90
30063;DHT22;16889;67.864;24.990;2023-09-08T06:30:09;10.90;99.90
30063;DHT22;16889;67.864;24.990;2023-09-08T06:34:55;11.30;99.90
30063;DHT22;16889;67.864;24.990;2023-09-08T06:39:40;11.50;99.90
30063;DHT22;16889;67.864;24.990;2023-09-08T06:44:26;11.90;99.90
30063;DHT22;16889;67.864;24.990;2023-09-08T06:49:13;12.00;99.90
30063;DHT22;16889;67.864;24.990;2023-09-08T06:53:59;12.40;99.90
30063;DHT22;16889;67.864;24.990;2023-09-08T06:58:45;13.30;99.90
30063;DHT22;16889;67.864;24.990;2023-09-08T07:03:31;16.50;99.90
30063;DHT22;16889;67.864;24.990;2023-09-08T07:08:22;17.30;99.90
30063;DHT22;16889;67.864;24.990;2023-09-08T07:13:08;19.80;99.90
30063;DHT22;16889;67.864;24.990;2023-09-08T07:17:54;21.90;96.90
30063;DHT22;16889;67.864;24.990;2023-09-08T07:22:40;22.00;93.50
30063;DHT22;16889;67.864;24.990;2023-09-08T07:27:26;19.50;98.50
30063;DHT22;16889;67.864;24.990;2023-09-08T07:32:12;18.20;99.90
30063;DHT22;16889;67.864;24.990;2023-09-08T07:36:59;17.90;99.90
30063;DHT22;16889;67.864;24.990;2023-09-08T07:41:45;17.60;99.90
30063;DHT22;16889;67.864;24.990;2023-09-08T07:46:31;16.90;99.90
30063;DHT22;16889;67.864;24.990;2023-09-08T07:51:17;16.20;99.90
30063;DHT22;16889;67.864;24.990;2023-09-08T07:56:03;15.90;99.90
30063;DHT22;16889;67.864;24.990;2023-09-08T08:00:49;16.00;99.90
30063;DHT22;16889;67.864;24.990;2023-09-08T08:05:36;16.10;99.90
30063;DHT22;16889;67.864;24.990;2023-09-08T08:10:22;16.20;99.90
30063;DHT22;16889;67.864;24.990;2023-09-08T08:15:09;16.60;99.90
30063;DHT22;16889;67.864;24.990;2023-09-08T08:19:58;19.00;99.90
30063;DHT22;16889;67.864;24.990;2023-09-08T08:24:45;19.70;99.90
30063;DHT22;16889;67.864;24.990;2023-09-08T08:29:31;19.50;99.90
30063;DHT22;16889;67.864;24.990;2023-09-08T08:34:17;18.30;99.90
30063;DHT22;16889;67.864;24.990;2023-09-08T08:39:03;17.60;99.90
30063;DHT22;16889;67.864;24.990;2023-09-08T08:43:50;16.90;99.90
30063;DHT22;16889;67.864;24.990;2023-09-08T08:48:37;16.70;99.90
30063;DHT22;16889;67.864;24.990;2023-09-08T08:53:24;16.70;99.90
30063;DHT22;16889;67.864;24.990;2023-09-08T08:58:11;16.80;99.90
30063;DHT22;16889;67.864;24.990;2023-09-08T09:03:00;16.70;99.90
30063;DHT22;16889;67.864;24.990;2023-09-08T09:07:46;16.60;99.90
30063;DHT22;16889;67.864;24.990;2023-09-08T09:12:32;16.60;99.90
30063;DHT22;16889;67.864;24.990;2023-09-08T09:17:18;16.70;99.90
30063;DHT22;16889;67.864;24.990;2023-09-08T09:22:04;16.90;99.90
30063;DHT22;16889;67.864;24.990;2023-09-08T09:26:52;17.10;99.90
30063;DHT22;16889;67.864;24.990;2023-09-08T09:31:54;17.20;99.90
30063;DHT22;16889;67.864;24.990;2023-09-08T09:36:42;17.20;99.90
30063;DHT22;16889;67.864;24.990;2023-09-08T09:41:31;17.70;99.90
30063;DHT22;16889;67.864;24.990;2023-09-08T09:46:17;18.00;99.90
30063;DHT22;16889;67.864;24.990;2023-09-08T09:51:16;18.80;99.90
30063;DHT22;16889;67.864;24.990;2023-09-08T09:56:03;20.40;99.90
30063;DHT22;16889;67.864;24.990;2023-09-08T10:00:50;20.60;99.90
30063;DHT22;16889;67.864;24.990;2023-09-08T10:05:36;20.30;99.90
30063;DHT22;16889;67.864;24.990;2023-09-08T10:10:23;20.90;98.40
30063;DHT22;16889;67.864;24.990;2023-09-08T10:15:10;20.70;98.60
30063;DHT22;16889;67.864;24.990;2023-09-08T10:20:00;19.80;99.50
30063;DHT22;16889;67.864;24.990;2023-09-08T10:24:47;19.50;99.90
30063;DHT22;16889;67.864;24.990;2023-09-08T10:29:35;19.60;99.90
30063;DHT22;16889;67.864;24.990;2023-09-08T10:34:21;20.40;99.90
30063;DHT22;16889;67.864;24.990;2023-09-08T10:44:14;21.60;96.10
30063;DHT22;16889;67.864;24.990;2023-09-08T10:49:07;21.80;94.90
30063;DHT22;16889;67.864;24.990;2023-09-08T10:53:53;20.60;97.60
30063;DHT22;16889;67.864;24.990;2023-09-08T10:58:39;21.10;96.40
30063;DHT22;16889;67.864;24.990;2023-09-08T11:08:23;21.00;97.20
30063;DHT22;16889;67.864;24.990;2023-09-08T11:13:10;20.90;98.60
30063;DHT22;16889;67.864;24.990;2023-09-08T11:17:56;20.60;97.30
30063;DHT22;16889;67.864;24.990;2023-09-08T11:22:44;20.60;98.70
30063;DHT22;16889;67.864;24.990;2023-09-08T11:27:29;20.10;97.50
30063;DHT22;16889;67.864;24.990;2023-09-08T11:32:16;19.70;99.70
30063;DHT22;16889;67.864;24.990;2023-09-08T11:37:12;19.70;99.10
30063;DHT22;16889;67.864;24.990;2023-09-08T11:42:00;19.80;99.50
30063;DHT22;16889;67.864;24.990;2023-09-08T11:46:47;19.60;99.70
30063;DHT22;16889;67.864;24.990;2023-09-08T11:51:34;19.70;99.90
30063;DHT22;16889;67.864;24.990;2023-09-08T11:56:21;19.80;99.90
30063;DHT22;16889;67.864;24.990;2023-09-08T12:01:07;19.80;99.90
30063;DHT22;16889;67.864;24.990;2023-09-08T12:05:53;19.90;99.20
30063;DHT22;16889;67.864;24.990;2023-09-08T12:10:41;20.10;99.90
30063;DHT22;16889;67.864;24.990;2023-09-08T12:15:38;20.30;99.50
30063;DHT22;16889;67.864;24.990;2023-09-08T12:20:24;20.60;99.30
30063;DHT22;16889;67.864;24.990;2023-09-08T12:25:10;20.60;98.40
30063;DHT22;16889;67.864;24.990;2023-09-08T12:29:58;20.60;97.30
30063;DHT22;16889;67.864;24.990;2023-09-08T12:34:46;20.50;99.10
30063;DHT22;16889;67.864;24.990;2023-09-08T12:39:32;20.70;97.70
30063;DHT22;16889;67.864;24.990;2023-09-08T12:44:18;20.50;98.70
30063;DHT22;16889;67.864;24.990;2023-09-08T12:49:04;20.50;99.30
30063;DHT22;16889;67.864;24.990;2023-09-08T12:53:49;20.40;97.80
30063;DHT22;16889;67.864;24.990;2023-09-08T12:58:35;20.30;97.80
30063;DHT22;16889;67.864;24.990;2023-09-08T13:03:21;20.20;99.00
30063;DHT22;16889;67.864;24.990;2023-09-08T13:08:07;20.10;99.10
30063;DHT22;16889;67.864;24.990;2023-09-08T13:12:53;20.00;99.00
30063;DHT22;16889;67.864;24.990;2023-09-08T13:17:39;19.90;99.00
30063;DHT22;16889;67.864;24.990;2023-09-08T13:22:25;19.70;99.90
30063;DHT22;16889;67.864;24.990;2023-09-08T13:27:11;19.90;99.90
30063;DHT22;16889;67.864;24.990;2023-09-08T13:31:57;20.00;99.90
30063;DHT22;16889;67.864;24.990;2023-09-08T13:36:43;19.90;99.90
30063;DHT22;16889;67.864;24.990;2023-09-08T13:41:55;19.90;99.90
30063;DHT22;16889;67.864;24.990;2023-09-08T13:46:41;19.80;99.90
30063;DHT22;16889;67.864;24.990;2023-09-08T13:51:27;19.70;99.90
30063;DHT22;16889;67.864;24.990;2023-09-08T13:56:13;19.70;99.90
30063;DHT22;16889;67.864;24.990;2023-09-08T14:00:59;19.70;99.90
30063;DHT22;16889;67.864;24.990;2023-09-08T14:05:45;19.50;99.90
30063;DHT22;16889;67.864;24.990;2023-09-08T14:10:31;19.40;99.90
30063;DHT22;16889;67.864;24.990;2023-09-08T14:15:17;19.40;99.90
30063;DHT22;16889;67.864;24.990;2023-09-08T14:20:03;19.30;99.90
30063;DHT22;16889;67.864;24.990;2023-09-08T14:24:50;19.20;99.90
30063;DHT22;16889;67.864;24.990;2023-09-08T14:29:36;19.20;99.90
30063;DHT22;16889;67.864;24.990;2023-09-08T14:34:22;19.20;99.90
30063;DHT22;16889;67.864;24.990;2023-09-08T14:39:08;19.20;99.90
30063;DHT22;16889;67.864;24.990;2023-09-08T14:43:54;19.00;99.90
30063;DHT22;16889;67.864;24.990;2023-09-08T14:48:40;18.80;99.90
30063;DHT22;16889;67.864;24.990;2023-09-08T14:53:26;18.60;99.90
30063;DHT22;16889;67.864;24.990;2023-09-08T14:58:15;18.70;99.90
30063;DHT22;16889;67.864;24.990;2023-09-08T15:03:01;18.60;99.90
30063;DHT22;16889;67.864;24.990;2023-09-08T15:07:50;18.50;99.90
30063;DHT22;16889;67.864;24.990;2023-09-08T15:12:36;18.50;99.90
30063;DHT22;16889;67.864;24.990;2023-09-08T15:17:22;18.40;99.90
30063;DHT22;16889;67.864;24.990;2023-09-08T15:22:08;18.30;99.90
30063;DHT22;16889;67.864;24.990;2023-09-08T15:26:54;18.10;99.90
30063;DHT22;16889;67.864;24.990;2023-09-08T15:31:40;18.00;99.90
30063;DHT22;16889;67.864;24.990;2023-09-08T15:36:26;17.80;99.90
30063;DHT22;16889;67.864;24.990;2023-09-08T15:41:16;17.60;99.90
30063;DHT22;16889;67.864;24.990;2023-09-08T15:46:04;17.50;99.90
30063;DHT22;16889;67.864;24.990;2023-09-08T15:50:49;17.40;99.90
30063;DHT22;16889;67.864;24.990;2023-09-08T15:55:35;17.30;99.90
30063;DHT22;16889;67.864;24.990;2023-09-08T16:00:21;17.30;99.90
30063;DHT22;16889;67.864;24.990;2023-09-08T16:05:07;17.10;99.90
30063;DHT22;16889;67.864;24.990;2023-09-08T16:09:54;17.00;99.90
30063;DHT22;16889;67.864;24.990;2023-09-08T16:14:40;16.90;99.90
30063;DHT22;16889;67.864;24.990;2023-09-08T16:19:26;16.70;99.90
30063;DHT22;16889;67.864;24.990;2023-09-08T16:24:12;16.60;99.90
30063;DHT22;16889;67.864;24.990;2023-09-08T16:28:58;16.60;99.90
30063;DHT22;16889;67.864;24.990;2023-09-08T16:33:43;16.50;99.90
30063;DHT22;16889;67.864;24.990;2023-09-08T16:38:29;16.30;99.90
30063;DHT22;16889;67.864;24.990;2023-09-08T16:43:18;16.20;99.90
30063;DHT22;16889;67.864;24.990;2023-09-08T16:48:04;16.10;99.90
30063;DHT22;16889;67.864;24.990;2023-09-08T16:52:51;16.00;99.90
30063;DHT22;16889;67.864;24.990;2023-09-08T16:57:39;16.00;99.90
30063;DHT22;16889;67.864;24.990;2023-09-08T17:02:25;15.90;99.90
30063;DHT22;16889;67.864;24.990;2023-09-08T17:07:12;15.70;99.90
30063;DHT22;16889;67.864;24.990;2023-09-08T17:12:00;15.70;99.90
30063;DHT22;16889;67.864;24.990;2023-09-08T17:16:46;15.60;99.90
30063;DHT22;16889;67.864;24.990;2023-09-08T17:21:32;15.60;99.90
30063;DHT22;16889;67.864;24.990;2023-09-08T17:26:18;15.50;99.90
30063;DHT22;16889;67.864;24.990;2023-09-08T17:31:04;15.40;99.90
30063;DHT22;16889;67.864;24.990;2023-09-08T17:35:51;15.30;99.90
30063;DHT22;16889;67.864;24.990;2023-09-08T17:40:36;15.20;99.90
30063;DHT22;16889;67.864;24.990;2023-09-08T17:45:23;15.00;99.90
30063;DHT22;16889;67.864;24.990;2023-09-08T17:50:09;14.90;99.90
30063;DHT22;16889;67.864;24.990;2023-09-08T17:54:55;14.80;99.90
30063;DHT22;16889;67.864;24.990;2023-09-08T17:59:42;14.90;99.90
30063;DHT22;16889;67.864;24.990;2023-09-08T18:04:28;14.90;99.90
30063;DHT22;16889;67.864;24.990;2023-09-08T18:09:14;14.80;99.90
30063;DHT22;16889;67.864;24.990;2023-09-08T18:14:00;14.90;99.90
30063;DHT22;16889;67.864;24.990;2023-09-08T18:18:46;14.80;99.90
30063;DHT22;16889;67.864;24.990;2023-09-08T18:23:32;14.70;99.90
30063;DHT22;16889;67.864;24.990;2023-09-08T18:28:20;14.60;99.90
30063;DHT22;16889;67.864;24.990;2023-09-08T18:33:06;14.60;99.90
30063;DHT22;16889;67.864;24.990;2023-09-08T18:37:52;14.60;99.90
30063;DHT22;16889;67.864;24.990;2023-09-08T18:42:39;14.50;99.90
30063;DHT22;16889;67.864;24.990;2023-09-08T18:47:25;14.50;99.90
30063;DHT22;16889;67.864;24.990;2023-09-08T18:52:11;14.40;99.90
30063;DHT22;16889;67.864;24.990;2023-09-08T18:56:57;14.30;99.90
30063;DHT22;16889;67.864;24.990;2023-09-08T19:01:43;14.20;99.90
30063;DHT22;16889;67.864;24.990;2023-09-08T19:06:29;14.00;99.90
30063;DHT22;16889;67.864;24.990;2023-09-08T19:11:16;13.90;99.90
30063;DHT22;16889;67.864;24.990;2023-09-08T19:16:03;13.90;99.90
30063;DHT22;16889;67.864;24.990;2023-09-08T19:20:49;13.80;99.90
30063;DHT22;16889;67.864;24.990;2023-09-08T19:25:38;13.70;99.90
30063;DHT22;16889;67.864;24.990;2023-09-08T19:30:27;13.60;99.90
30063;DHT22;16889;67.864;24.990;2023-09-08T19:35:13;13.60;99.90
30063;DHT22;16889;67.864;24.990;2023-09-08T19:39:59;13.60;99.90
30063;DHT22;16889;67.864;24.990;2023-09-08T19:44:45;13.40;99.90
30063;DHT22;16889;67.864;24.990;2023-09-08T19:49:30;13.40;99.90
30063;DHT22;16889;67.864;24.990;2023-09-08T19:54:16;13.20;99.90
30063;DHT22;16889;67.864;24.990;2023-09-08T19:59:02;13.10;99.90
30063;DHT22;16889;67.864;24.990;2023-09-08T20:03:48;13.10;99.90
30063;DHT22;16889;67.864;24.990;2023-09-08T20:08:34;13.10;99.90
30063;DHT22;16889;67.864;24.990;2023-09-08T20:13:20;13.10;99.90
30063;DHT22;16889;67.864;24.990;2023-09-08T20:18:07;13.00;99.90
30063;DHT22;16889;67.864;24.990;2023-09-08T20:22:53;13.00;99.90
30063;DHT22;16889;67.864;24.990;2023-09-08T20:27:39;12.90;99.90
30063;DHT22;16889;67.864;24.990;2023-09-08T20:32:24;12.80;99.90
30063;DHT22;16889;67.864;24.990;2023-09-08T20:37:10;12.70;99.90
30063;DHT22;16889;67.864;24.990;2023-09-08T20:41:56;12.70;99.90
30063;DHT22;16889;67.864;24.990;2023-09-08T20:46:42;12.70;99.90
30063;DHT22;16889;67.864;24.990;2023-09-08T20:51:32;12.70;99.90
30063;DHT22;16889;67.864;24.990;2023-09-08T20:56:18;12.60;99.90
30063;DHT22;16889;67.864;24.990;2023-09-08T21:01:04;12.60;99.90
30063;DHT22;16889;67.864;24.990;2023-09-08T21:05:50;12.40;99.90
30063;DHT22;16889;67.864;24.990;2023-09-08T21:10:36;12.40;99.90
30063;DHT22;16889;67.864;24.990;2023-09-08T21:15:22;12.30;99.90
30063;DHT22;16889;67.864;24.990;2023-09-08T21:20:08;12.20;99.90
30063;DHT22;16889;67.864;24.990;2023-09-08T21:24:54;12.20;99.90
30063;DHT22;16889;67.864;24.990;2023-09-08T21:29:40;12.10;99.90
30063;DHT22;16889;67.864;24.990;2023-09-08T21:34:26;12.10;99.90
30063;DHT22;16889;67.864;24.990;2023-09-08T21:39:12;12.10;99.90
30063;DHT22;16889;67.864;24.990;2023-09-08T21:44:01;12.10;99.90
30063;DHT22;16889;67.864;24.990;2023-09-08T21:48:47;12.10;99.90
30063;DHT22;16889;67.864;24.990;2023-09-08T21:53:33;12.10;99.90
30063;DHT22;16889;67.864;24.990;2023-09-08T21:58:18;12.10;99.90
30063;DHT22;16889;67.864;24.990;2023-09-08T22:03:04;12.10;99.90
30063;DHT22;16889;67.864;24.990;2023-09-08T22:07:50;12.00;99.90
30063;DHT22;16889;67.864;24.990;2023-09-08T22:12:36;12.00;99.90
30063;DHT22;16889;67.864;24.990;2023-09-08T22:17:22;11.90;99.90
30063;DHT22;16889;67.864;24.990;2023-09-08T22:22:08;11.90;99.90
30063;DHT22;16889;67.864;24.990;2023-09-08T22:26:54;11.80;99.90
30063;DHT22;16889;67.864;24.990;2023-09-08T22:31:40;11.80;99.90
30063;DHT22;16889;67.864;24.990;2023-09-08T22:36:26;11.80;99.90
30063;DHT22;16889;67.864;24.990;2023-09-08T22:41:12;11.80;99.90
30063;DHT22;16889;67.864;24.990;2023-09-08T22:45:58;11.70;99.90
30063;DHT22;16889;67.864;24.990;2023-09-08T22:50:44;11.60;99.90
30063;DHT22;16889;67.864;24.990;2023-09-08T22:55:31;11.50;99.90
30063;DHT22;16889;67.864;24.990;2023-09-08T23:00:17;11.40;99.90
30063;DHT22;16889;67.864;24.990;2023-09-08T23:05:03;11.30;99.90
30063;DHT22;16889;67.864;24.990;2023-09-08T23:09:49;11.30;99.90
30063;DHT22;16889;67.864;24.990;2023-09-08T23:14:37;11.40;99.90
30063;DHT22;16889;67.864;24.990;2023-09-08T23:19:23;11.40;99.90
